• Join FlightAware (Why Join?)
  • Login
  • US Flag 
09:01PM EDT


 

Airport Tracker/Info


-or-


 

Live Flight TrackerFlight Track Log ✈ N415JA ✈ 18-Feb-2014 ✈ MUHA / HAV - KMIA

Flight Track Log - Related Links

Times and Time Zones

All times are in EST time to prevent confusion due to time zone crossing. See the N415JA flight status page for this flight to view local times or setup timezone preferences in your user account.

Time Position Orientation Groundspeed Altitude Reporting Facility
EST Latitude Longitude Course Direction KTS MPH feet Rate Location/Type
02:41PM 23.4067 -81.8972 46° Northeast 326 375 19,400  Level Miami Center
02:42PM 23.4803 -81.8142 46° Northeast 355 409 21,700 1,800 Climbing Miami Center
02:43PM 23.5583 -81.7311 44° Northeast 379 436 23,000 1,140 Climbing Miami Center
02:44PM 23.6603 -81.6761 26° Northeast 401 461 24,000 480 Climbing Miami Center
02:45PM 23.7744 -81.6306 20° North 406 467 24,000  Level Miami Center
02:46PM 23.8886 -81.5847 20° North 425 489 24,000  Level Miami Center
02:47PM 24.0028 -81.5414 19° North 431 496 24,000  Level Miami Center
02:48PM 24.1169 -81.4933 21° North 431 496 24,000  Level Miami Center
02:49PM 24.2289 -81.4519 19° North 431 496 24,000  Level Miami Center
02:50PM 24.3389 -81.4058 21° North 431 496 24,000  Level Miami Center
02:51PM 24.4489 -81.3619 20° North 425 489 24,000 -240 Level Miami Center
02:52PM 24.5608 -81.3181 20° North 425 489 23,600 -960 Descending Miami Center
02:53PM 24.6689 -81.2717 21° North 420 483 22,100 -1,500 Descending Miami Center
02:54PM 24.7808 -81.2297 19° North 414 476 20,600 -1,500 Descending Miami Center
02:55PM 24.8844 -81.1856 21° North 408 470 19,200 -1,440 Descending Miami Center
02:56PM 24.9772 -81.1497 19° North 401 461 17,800 -1,380 Descending Miami Center
02:57PM 25.0789 -81.1075 21° North 391 450 16,500 -1,440 Descending Miami Center
02:58PM 25.1825 -81.0653 20° North 378 435 15,000 -1,440 Descending Miami Center
02:59PM 25.2794 -81.0272 20° North 367 422 13,700 -1,260 Descending Miami Center
02:59PM 25.3114 -81.0122 23° Northeast 352 405 13,200 -1,320 Descending Miami Center
03:00PM 25.3725 -80.9911 17° North 362 417 12,400 -1,320 Descending Miami Center
03:01PM 25.4592 -80.9550 21° North 347 399 11,200 -1,200 Descending Miami Center
03:02PM 25.5333 -80.9117 28° Northeast 315 362 10,100 -1,020 Descending Miami Center
03:02PM 25.5483 -80.8958 44° Northeast 284 327 9,900 -1,140 Descending Miami Center
03:03PM 25.5914 -80.8514 43° Northeast 293 337 9,000 -1,140 Descending Miami Center
03:03PM 25.5958 -80.8469 42° Northeast 283 326 9,000 -1,140 Level Miami Center
03:04PM 25.6431 -80.8000 42° Northeast 282 325 7,900 -1,440 Descending Miami Center
03:04PM 25.6622 -80.7822 40° Northeast 284 327 7,400 -1,320 Descending Miami Center
03:05PM 25.7008 -80.7397 45° Northeast 276 318 6,600 -1,140 Descending Miami Center
03:05PM 25.7097 -80.7283 49° Northeast 275 316 6,400 -1,020 Descending Miami Center
03:06PM 25.7547 -80.6839 42° Northeast 271 312 5,600 -1,020 Descending Miami Center
03:06PM 25.7656 -80.6703 49° Northeast 262 302 5,400 -900 Descending Miami Center
03:07PM 25.7917 -80.6228 59° Northeast 259 298 4,700 -900 Descending Miami Center
03:07PM 25.7858 -80.6086 115° Southeast 224 258 4,500 -840 Descending Miami Center
03:08PM 25.7933 -80.5558 81° East 226 260 3,900 -840 Descending Miami Center
03:08PM 25.7897 -80.5325 100° East 209 241 3,600 -720 Descending Miami Center
03:09PM 25.7950 -80.4914 82° East 215 247 3,200 -720 Descending Miami Center
03:09PM 25.7914 -80.4703 101° East 199 229 2,900 -1,020 Descending Miami Center
03:10PM 25.7969 -80.4175 83° East 185 213 2,000 -900 Descending Miami Center
03:11PM 25.7961 -80.3667 91° East 159 183 1,200 -840 Descending Miami Center
03:12PM 25.8014 -80.3161 83° East 131 151 300 -840 Descending Miami Center
03:14PM 25.7954 -80.2901 90° East  Level Estimated
03:21PM 25.7954 -80.2901 90° East  Level Estimated